Time;durP1;ratioP1;P1;durP2;ratioP2;P2;SDS_P1;SDS_P2;PMS_P1;PMS_P2;Temp;Humidity;BMP_temperature;BMP_pressure;BME280_temperature;BME280_humidity;BME280_pressure;Samples;Min_cycle;Max_cycle;Signal;HPM_P1;HPM_P2
2021/08/24 00:01:28;;;;;;;18.13;13.45;;;;;;;13.88;83.46;100544.59;4972179;28;20122;-66
2021/08/24 00:03:54;;;;;;;14.82;8.73;;;;;;;13.87;83.38;100542.91;4971992;28;20434;-67
2021/08/24 00:06:19;;;;;;;12.35;9.30;;;;;;;13.84;83.10;100543.91;4972574;28;20038;-67
2021/08/24 00:08:44;;;;;;;12.60;10.32;;;;;;;13.82;83.00;100544.94;4972075;28;20031;-66
2021/08/24 00:11:11;;;;;;;26.60;13.35;;;;;;;13.74;82.52;100543.53;4971359;28;20065;-64
2021/08/24 00:13:36;;;;;;;20.02;11.48;;;;;;;13.68;82.68;100541.19;4970605;28;20085;-65
2021/08/24 00:16:02;;;;;;;13.48;11.32;;;;;;;13.60;82.75;100535.41;4971745;28;20027;-65
2021/08/24 00:18:27;;;;;;;21.00;12.32;;;;;;;13.62;83.16;100546.78;4971245;28;20035;-64
2021/08/24 00:20:54;;;;;;;15.88;10.88;;;;;;;13.56;82.91;100543.56;4971695;28;20480;-65
2021/08/24 00:23:22;;;;;;;16.02;11.20;;;;;;;13.49;82.85;100537.75;4972276;28;20415;-65
2021/08/24 00:25:50;;;;;;;20.33;9.63;;;;;;;13.49;83.39;100546.53;4971610;28;20034;-65
2021/08/24 00:28:16;;;;;;;15.38;11.75;;;;;;;13.50;82.72;100537.66;4989529;28;20049;-65
2021/08/24 00:30:42;;;;;;;16.95;8.18;;;;;;;13.44;82.44;100537.97;4990180;28;20034;-65
2021/08/24 00:33:08;;;;;;;13.88;9.73;;;;;;;13.44;83.08;100542.41;4989911;28;20612;-65
2021/08/24 00:35:39;;;;;;;11.93;9.35;;;;;;;13.37;82.43;100544.50;5001376;28;20107;-65
2021/08/24 00:38:10;;;;;;;12.13;9.85;;;;;;;13.36;82.19;100550.69;5009449;28;20042;-65
2021/08/24 00:40:36;;;;;;;16.92;10.50;;;;;;;13.36;82.52;100536.59;5010182;28;20355;-66
2021/08/24 00:43:01;;;;;;;15.15;9.88;;;;;;;13.32;83.01;100538.56;5010315;28;20521;-66
2021/08/24 00:45:26;;;;;;;10.50;8.77;;;;;;;13.31;82.72;100543.00;5010366;28;20057;-65
2021/08/24 00:47:53;;;;;;;15.35;9.07;;;;;;;13.26;82.55;100539.66;5009992;28;20508;-64
2021/08/24 00:50:27;;;;;;;16.02;11.20;;;;;;;13.23;82.92;100538.97;5010778;28;20040;-64
2021/08/24 00:52:56;;;;;;;15.10;9.50;;;;;;;13.16;83.25;100543.69;5010100;28;20498;-64
2021/08/24 00:55:22;;;;;;;20.17;12.70;;;;;;;13.15;82.58;100544.63;5010268;28;20042;-64
2021/08/24 00:57:59;;;;;;;15.30;8.77;;;;;;;13.14;83.12;100540.25;5010641;28;20038;-66
2021/08/24 01:00:26;;;;;;;14.00;8.20;;;;;;;13.10;83.53;100546.63;4999528;28;20041;-65
2021/08/24 01:02:52;;;;;;;15.55;10.70;;;;;;;13.10;82.99;100544.84;5008083;28;20399;-66
2021/08/24 01:05:18;;;;;;;11.85;8.02;;;;;;;13.08;82.82;100554.66;5010238;28;20034;-66
2021/08/24 01:07:54;;;;;;;12.25;10.00;;;;;;;13.06;82.99;100559.16;5009673;28;20052;-64
2021/08/24 01:10:26;;;;;;;13.43;10.35;;;;;;;13.02;82.82;100556.72;5010195;28;20092;-64
2021/08/24 01:13:07;;;;;;;12.27;8.77;;;;;;;13.02;83.37;100559.34;5009890;28;20040;-65
2021/08/24 01:15:55;;;;;;;14.07;8.02;;;;;;;13.00;82.84;100564.75;5009577;28;20044;-65
2021/08/24 01:18:39;;;;;;;10.52;9.23;;;;;;;13.02;82.84;100560.25;5010131;28;20084;-65
2021/08/24 01:21:24;;;;;;;10.80;8.55;;;;;;;13.02;82.91;100557.59;4995535;28;20053;-66
2021/08/24 01:23:49;;;;;;;14.15;9.25;;;;;;;13.01;82.81;100560.31;4971097;28;20038;-66
2021/08/24 01:26:29;;;;;;;17.45;11.20;;;;;;;12.94;82.17;100556.22;4970748;28;20034;-66
2021/08/24 01:29:29;;;;;;;19.67;10.55;;;;;;;12.89;82.43;100559.09;4970554;28;20031;-65
2021/08/24 01:32:16;;;;;;;16.77;11.57;;;;;;;12.78;82.55;100566.66;4970649;28;20045;-65
2021/08/24 01:34:56;;;;;;;12.13;9.70;;;;;;;12.76;82.56;100563.22;4971001;28;20042;-65
2021/08/24 01:37:30;;;;;;;15.20;10.40;;;;;;;12.73;82.70;100561.59;4970745;28;20042;-65
2021/08/24 01:40:22;;;;;;;14.55;11.18;;;;;;;12.73;82.56;100563.38;4970596;28;20038;-65
2021/08/24 01:42:48;;;;;;;13.20;10.27;;;;;;;12.68;82.83;100563.59;4972145;28;20054;-66
2021/08/24 01:45:34;;;;;;;20.20;8.43;;;;;;;12.66;82.75;100558.34;4975312;28;20376;-66
2021/08/24 01:48:27;;;;;;;12.00;10.35;;;;;;;12.66;82.92;100558.34;4974404;28;20039;-66
2021/08/24 01:51:09;;;;;;;11.82;8.63;;;;;;;12.61;82.76;100557.72;4974911;28;20035;-65
2021/08/24 01:53:40;;;;;;;10.93;9.75;;;;;;;12.60;82.60;100563.06;4974784;28;20544;-65
2021/08/24 01:56:18;;;;;;;12.13;9.23;;;;;;;12.59;83.26;100566.63;4974734;28;20069;-65
2021/08/24 01:58:51;;;;;;;12.52;10.30;;;;;;;12.55;82.85;100575.63;4974300;28;20159;-65
2021/08/24 02:01:21;;;;;;;12.27;9.95;;;;;;;12.53;82.28;100569.53;4974634;28;20085;-65
2021/08/24 02:03:53;;;;;;;12.50;11.23;;;;;;;12.48;83.00;100569.78;4974678;28;20030;-65
2021/08/24 02:06:24;;;;;;;11.75;9.07;;;;;;;12.51;82.40;100574.06;4974398;28;20035;-65
2021/08/24 02:08:54;;;;;;;15.02;9.15;;;;;;;12.49;82.88;100571.47;4974474;28;20035;-65
2021/08/24 02:11:20;;;;;;;15.45;11.45;;;;;;;12.44;82.48;100576.97;4974290;28;20047;-65
2021/08/24 02:13:49;;;;;;;10.93;9.45;;;;;;;12.44;82.91;100576.13;4974222;28;20027;-67
2021/08/24 02:16:22;;;;;;;10.57;9.25;;;;;;;12.39;82.25;100578.97;4974030;28;20117;-65
2021/08/24 02:19:02;;;;;;;15.57;10.95;;;;;;;12.33;82.36;100581.88;4973997;28;20031;-65
2021/08/24 02:21:32;;;;;;;13.82;10.10;;;;;;;12.30;82.40;100586.44;4973943;28;20031;-65
2021/08/24 02:24:01;;;;;;;15.63;8.90;;;;;;;12.23;82.78;100578.78;4974138;28;20505;-65
2021/08/24 02:26:30;;;;;;;14.73;11.52;;;;;;;12.20;82.50;100581.53;4974277;28;20495;-65
2021/08/24 02:28:58;;;;;;;13.38;11.43;;;;;;;12.13;82.99;100579.22;4972470;28;20101;-65
2021/08/24 02:31:51;;;;;;;13.35;11.00;;;;;;;12.10;82.97;100577.56;4974288;28;20119;-65
2021/08/24 02:34:53;;;;;;;16.88;10.70;;;;;;;12.05;83.62;100581.34;4974487;28;20065;-66
2021/08/24 02:37:35;;;;;;;16.45;10.85;;;;;;;12.03;82.69;100578.75;4985819;28;20042;-66
2021/08/24 02:40:24;;;;;;;13.07;9.88;;;;;;;12.04;83.05;100577.84;4992908;28;20379;-66
2021/08/24 02:43:02;;;;;;;12.05;10.73;;;;;;;12.01;82.78;100583.25;4993466;28;20033;-65
2021/08/24 02:45:33;;;;;;;17.48;10.88;;;;;;;11.97;83.41;100585.19;4993077;28;20042;-65
2021/08/24 02:48:03;;;;;;;12.65;9.45;;;;;;;11.94;82.98;100590.59;4992893;28;20041;-66
2021/08/24 02:50:29;;;;;;;20.02;12.57;;;;;;;11.92;83.09;100589.78;4993040;28;20399;-65
2021/08/24 02:52:54;;;;;;;13.52;11.13;;;;;;;11.91;83.53;100592.50;4992607;28;20089;-66
2021/08/24 02:55:21;;;;;;;14.85;12.07;;;;;;;11.90;83.53;100594.28;4993263;28;20034;-65
2021/08/24 02:57:46;;;;;;;13.07;11.00;;;;;;;11.88;83.30;100596.13;4992620;28;20038;-65
2021/08/24 03:00:12;;;;;;;14.15;9.10;;;;;;;11.91;83.11;100600.41;4992634;28;20034;-65
2021/08/24 03:02:37;;;;;;;14.57;11.20;;;;;;;11.88;82.62;100597.91;4992711;28;20498;-66
2021/08/24 03:05:03;;;;;;;13.00;10.95;;;;;;;11.86;82.59;100592.66;4993041;28;20030;-65
2021/08/24 03:07:31;;;;;;;10.38;8.43;;;;;;;11.87;83.06;100597.06;4992502;28;20123;-66
2021/08/24 03:10:07;;;;;;;13.25;9.90;;;;;;;11.90;82.58;100598.72;4992852;28;20398;-66
2021/08/24 03:13:06;;;;;;;18.50;11.88;;;;;;;11.88;82.79;100601.41;4992470;28;20514;-66
2021/08/24 03:15:45;;;;;;;22.23;9.70;;;;;;;11.86;82.92;100597.06;4994385;28;20399;-66
2021/08/24 03:18:20;;;;;;;11.10;7.53;;;;;;;11.86;83.20;100595.28;4992575;28;20153;-66
2021/08/24 03:20:49;;;;;;;11.07;9.37;;;;;;;11.89;83.31;100596.97;4993660;28;20030;-66
2021/08/24 03:23:17;;;;;;;13.68;11.27;;;;;;;11.90;82.66;100604.00;4993207;28;20035;-66
2021/08/24 03:25:45;;;;;;;13.80;9.88;;;;;;;11.91;82.18;100603.94;4993136;28;20502;-66
2021/08/24 03:28:16;;;;;;;12.27;10.30;;;;;;;11.94;82.95;100601.16;4992565;28;20038;-66
2021/08/24 03:30:42;;;;;;;10.70;8.45;;;;;;;11.93;82.73;100604.72;4995513;28;20033;-66
2021/08/24 03:33:09;;;;;;;13.13;9.90;;;;;;;11.94;82.95;100609.09;4993029;28;20456;-65
2021/08/24 03:35:34;;;;;;;16.83;10.93;;;;;;;11.96;82.67;100607.25;4992242;28;20035;-67
2021/08/24 03:37:59;;;;;;;10.23;9.18;;;;;;;11.97;82.41;100606.31;4990655;28;20446;-66
2021/08/24 03:40:25;;;;;;;11.45;9.05;;;;;;;11.95;82.32;100596.75;4992427;28;20038;-66
2021/08/24 03:42:50;;;;;;;11.20;9.15;;;;;;;11.94;82.09;100602.97;4992694;28;20402;-66
2021/08/24 03:45:15;;;;;;;12.23;10.90;;;;;;;11.86;82.38;100611.13;4992577;28;20041;-66
2021/08/24 03:47:41;;;;;;;16.17;11.90;;;;;;;11.81;82.19;100608.72;4990728;28;20064;-66
2021/08/24 03:50:08;;;;;;;11.27;9.60;;;;;;;11.79;82.23;100605.28;4992024;28;20042;-66
2021/08/24 03:52:34;;;;;;;12.68;10.80;;;;;;;11.76;82.66;100605.41;4991933;28;20038;-66
2021/08/24 03:54:59;;;;;;;12.50;9.10;;;;;;;11.77;82.63;100599.19;4991817;28;20026;-66
2021/08/24 03:57:24;;;;;;;17.95;9.60;;;;;;;11.77;82.48;100609.75;4991547;28;20049;-66
2021/08/24 03:59:54;;;;;;;12.38;10.38;;;;;;;11.79;82.59;100605.28;4992039;28;20031;-66
2021/08/24 04:02:20;;;;;;;16.67;13.05;;;;;;;11.72;82.46;100608.22;4991862;28;20088;-65
2021/08/24 04:04:45;;;;;;;15.48;11.02;;;;;;;11.68;83.09;100607.47;4991363;28;20038;-66
2021/08/24 04:07:10;;;;;;;12.43;9.80;;;;;;;11.72;82.64;100611.72;4991319;28;20038;-66
2021/08/24 04:09:36;;;;;;;11.73;9.70;;;;;;;11.71;82.64;100609.13;4991939;28;20034;-66
2021/08/24 04:12:01;;;;;;;12.38;7.78;;;;;;;11.69;82.97;100608.34;4991308;28;20034;-66
2021/08/24 04:14:26;;;;;;;12.07;8.68;;;;;;;11.71;82.40;100607.34;4991508;28;20077;-66
2021/08/24 04:16:52;;;;;;;12.38;9.57;;;;;;;11.73;82.37;100607.31;4991781;28;20034;-66
2021/08/24 04:19:17;;;;;;;13.65;9.75;;;;;;;11.73;82.68;100612.59;4991352;28;20034;-67
2021/08/24 04:21:42;;;;;;;14.68;11.93;;;;;;;11.75;82.07;100613.38;4990990;28;20038;-66
2021/08/24 04:24:09;;;;;;;12.88;10.02;;;;;;;11.75;82.56;100608.94;4991383;28;20038;-65
2021/08/24 04:26:35;;;;;;;16.60;11.40;;;;;;;11.75;82.22;100610.75;4991026;28;20042;-65
2021/08/24 04:29:00;;;;;;;12.18;8.07;;;;;;;11.80;83.01;100614.06;4990598;28;20092;-66
2021/08/24 04:31:29;;;;;;;13.48;10.13;;;;;;;11.86;82.43;100619.06;4991017;28;20073;-66
2021/08/24 04:33:55;;;;;;;16.02;11.35;;;;;;;11.89;82.41;100626.94;4991334;28;20475;-64
2021/08/24 04:36:21;;;;;;;10.65;8.68;;;;;;;11.95;82.27;100624.00;4991522;28;20055;-65
2021/08/24 04:38:46;;;;;;;15.82;10.38;;;;;;;12.01;82.18;100625.53;4991051;28;20030;-65
2021/08/24 04:41:12;;;;;;;15.35;10.70;;;;;;;12.00;82.18;100627.31;4990965;28;20569;-67
2021/08/24 04:43:37;;;;;;;17.85;10.82;;;;;;;11.98;82.79;100626.53;4989144;28;20114;-65
2021/08/24 04:46:03;;;;;;;16.90;11.93;;;;;;;11.98;82.22;100626.53;4989143;28;20034;-66
2021/08/24 04:48:28;;;;;;;13.57;10.30;;;;;;;11.94;82.54;100630.22;4990698;28;20038;-66
2021/08/24 04:50:54;;;;;;;12.23;8.93;;;;;;;11.88;82.49;100634.91;4990929;28;20030;-66
2021/08/24 04:53:22;;;;;;;16.50;10.70;;;;;;;11.90;82.67;100633.91;4991075;28;20054;-66
2021/08/24 04:55:48;;;;;;;14.02;11.70;;;;;;;11.91;82.23;100634.78;4990558;28;20035;-66
2021/08/24 04:58:13;;;;;;;18.63;12.57;;;;;;;11.86;81.93;100628.78;4990823;28;20509;-67
2021/08/24 05:00:38;;;;;;;14.32;10.68;;;;;;;11.87;82.52;100636.69;4990747;28;20045;-67
2021/08/24 05:03:04;;;;;;;14.00;9.00;;;;;;;11.84;82.41;100634.16;4989505;28;20113;-65
2021/08/24 05:05:29;;;;;;;14.18;8.65;;;;;;;11.86;82.32;100642.00;4988845;28;20142;-66
2021/08/24 05:07:54;;;;;;;15.48;9.82;;;;;;;11.90;82.51;100641.84;4990481;28;20042;-67
2021/08/24 05:10:21;;;;;;;16.60;10.65;;;;;;;11.87;82.29;100639.34;4990388;28;20030;-65
2021/08/24 05:12:47;;;;;;;17.45;10.90;;;;;;;11.91;82.34;100640.06;4990242;28;20064;-67
2021/08/24 05:15:13;;;;;;;13.55;9.45;;;;;;;11.89;82.45;100639.25;4993018;28;20479;-66
2021/08/24 05:17:38;;;;;;;12.90;10.20;;;;;;;11.93;82.85;100640.84;4989815;28;20027;-67
2021/08/24 05:20:05;;;;;;;15.98;11.45;;;;;;;11.88;82.16;100641.03;4989891;28;20496;-66
2021/08/24 05:22:31;;;;;;;14.63;11.10;;;;;;;11.87;82.46;100647.25;4989726;28;20456;-67
2021/08/24 05:24:57;;;;;;;13.52;10.43;;;;;;;11.96;82.47;100646.91;4989967;28;20041;-66
2021/08/24 05:27:22;;;;;;;17.45;11.55;;;;;;;11.97;82.46;100655.66;4970617;28;20050;-65
2021/08/24 05:29:48;;;;;;;17.38;10.95;;;;;;;12.01;82.99;100646.69;4970611;28;20098;-65
2021/08/24 05:32:14;;;;;;;18.85;9.35;;;;;;;12.03;82.72;100655.41;4985035;28;20062;-67
2021/08/24 05:34:39;;;;;;;14.00;10.43;;;;;;;12.09;81.87;100652.53;4990129;28;20038;-65
2021/08/24 05:37:05;;;;;;;12.30;9.50;;;;;;;12.12;82.55;100656.81;4989378;28;20035;-65
2021/08/24 05:39:32;;;;;;;12.68;9.13;;;;;;;12.15;82.46;100665.47;4989872;28;20031;-65
2021/08/24 05:41:59;;;;;;;12.65;9.77;;;;;;;12.15;82.05;100661.97;4989649;28;20038;-66
2021/08/24 05:44:24;;;;;;;13.30;8.13;;;;;;;12.21;82.77;100659.94;4990298;28;20027;-65
2021/08/24 05:46:50;;;;;;;12.98;9.90;;;;;;;12.25;82.33;100666.81;4989653;28;20039;-67
2021/08/24 05:49:15;;;;;;;16.40;10.35;;;;;;;12.27;82.54;100669.38;4989988;28;20046;-66
2021/08/24 05:51:40;;;;;;;17.75;11.50;;;;;;;12.33;82.87;100668.25;4987924;28;20031;-66
2021/08/24 05:54:06;;;;;;;13.48;9.68;;;;;;;12.37;82.56;100667.22;4989914;28;20038;-66
2021/08/24 05:56:32;;;;;;;15.40;11.85;;;;;;;12.43;82.53;100667.81;4989605;28;20035;-66
2021/08/24 05:58:57;;;;;;;14.15;9.00;;;;;;;12.50;82.66;100675.47;4989098;28;20231;-66
2021/08/24 06:01:28;;;;;;;13.13;9.82;;;;;;;12.59;82.38;100677.75;5009050;28;20026;-66
2021/08/24 06:03:54;;;;;;;14.25;9.40;;;;;;;12.71;82.98;100679.00;5009768;28;20115;-66
2021/08/24 06:06:24;;;;;;;15.18;10.80;;;;;;;12.79;82.12;100682.16;5009325;28;20038;-65
2021/08/24 06:08:49;;;;;;;15.23;11.45;;;;;;;12.82;82.21;100680.25;5009161;28;20034;-65
2021/08/24 06:11:20;;;;;;;16.10;9.88;;;;;;;12.90;82.16;100679.91;5009088;28;20097;-66
2021/08/24 06:13:46;;;;;;;18.60;12.57;;;;;;;12.99;83.04;100683.91;5009515;28;20034;-66
2021/08/24 06:16:12;;;;;;;18.55;11.35;;;;;;;13.08;82.71;100684.38;5009307;28;20028;-66
2021/08/24 06:18:38;;;;;;;12.40;9.10;;;;;;;13.18;81.98;100681.31;5008792;28;20108;-66
2021/08/24 06:21:03;;;;;;;11.77;9.40;;;;;;;13.31;81.52;100691.31;5009264;28;20104;-65
2021/08/24 06:23:29;;;;;;;12.65;9.20;;;;;;;13.37;81.39;100684.88;5009070;28;20038;-67
2021/08/24 06:25:54;;;;;;;12.05;9.20;;;;;;;13.48;80.34;100684.34;5009362;28;20113;-67
2021/08/24 06:28:19;;;;;;;13.38;9.35;;;;;;;13.57;80.09;100680.41;5009485;28;20030;-65
2021/08/24 06:30:44;;;;;;;14.70;8.93;;;;;;;13.65;79.39;100673.81;5012246;28;20034;-65
2021/08/24 06:33:10;;;;;;;13.77;8.55;;;;;;;13.75;79.51;100672.44;5012862;28;20038;-65
2021/08/24 06:35:35;;;;;;;14.65;10.77;;;;;;;13.84;77.88;100676.44;5012576;28;20041;-65
2021/08/24 06:38:01;;;;;;;14.55;9.60;;;;;;;13.93;77.91;100673.34;5012010;28;20081;-66
2021/08/24 06:40:27;;;;;;;14.65;10.63;;;;;;;14.08;77.48;100681.50;5012909;28;20331;-66
2021/08/24 06:42:53;;;;;;;10.90;8.90;;;;;;;14.17;77.50;100681.88;5009279;28;20073;-66
2021/08/24 06:45:29;;;;;;;20.90;8.38;;;;;;;14.32;77.22;100679.38;5003224;28;20044;-66
2021/08/24 06:47:54;;;;;;;15.38;9.57;;;;;;;14.41;76.81;100672.78;4973352;28;20035;-67
2021/08/24 06:50:21;;;;;;;12.68;7.20;;;;;;;14.52;76.26;100679.25;4991947;28;20490;-66
2021/08/24 06:52:47;;;;;;;11.88;7.95;;;;;;;14.61;75.83;100672.63;4992740;28;20038;-65
2021/08/24 06:55:13;;;;;;;10.52;6.85;;;;;;;14.72;75.07;100674.75;4995451;28;20483;-66
2021/08/24 06:57:39;;;;;;;19.73;7.78;;;;;;;14.85;73.92;100666.97;4997886;28;20096;-69
2021/08/24 07:00:07;;;;;;;133.90;24.38;;;;;;;14.93;73.67;100667.44;4998936;28;20411;-68
2021/08/24 07:02:33;;;;;;;27.13;10.32;;;;;;;15.03;73.48;100677.47;4989406;28;20038;-68
2021/08/24 07:04:58;;;;;;;21.02;7.68;;;;;;;15.14;74.13;100676.91;4989388;28;20041;-68
2021/08/24 07:07:24;;;;;;;19.10;8.55;;;;;;;15.32;73.30;100679.50;4984717;28;20170;-68
2021/08/24 07:09:51;;;;;;;12.50;8.35;;;;;;;15.43;72.85;100685.06;4976131;28;20031;-68
2021/08/24 07:12:16;;;;;;;13.35;6.75;;;;;;;15.53;71.85;100681.00;4973422;28;20063;-69
2021/08/24 07:14:42;;;;;;;18.95;6.95;;;;;;;15.58;71.06;100681.59;4973533;28;20058;-69
2021/08/24 07:17:07;;;;;;;19.17;6.88;;;;;;;15.67;70.83;100681.06;4971358;28;20078;-69
2021/08/24 07:19:32;;;;;;;8.88;6.15;;;;;;;15.74;70.84;100676.28;4972999;28;20097;-69
2021/08/24 07:21:58;;;;;;;24.75;7.47;;;;;;;15.79;69.61;100684.00;4973158;28;20062;-68
2021/08/24 07:24:23;;;;;;;14.10;7.32;;;;;;;15.84;69.47;100677.47;4972779;28;20034;-68
2021/08/24 07:26:49;;;;;;;29.50;7.70;;;;;;;15.92;69.13;100673.53;4990133;28;20450;-69
2021/08/24 07:29:15;;;;;;;10.73;6.68;;;;;;;15.99;68.56;100675.75;4992077;28;20390;-69
2021/08/24 07:31:40;;;;;;;15.57;7.45;;;;;;;16.09;68.51;100681.38;4976516;28;20035;-69
2021/08/24 07:34:09;;;;;;;9.68;6.40;;;;;;;16.26;68.47;100680.41;4997130;28;20062;-71
2021/08/24 07:36:34;;;;;;;13.27;6.28;;;;;;;16.41;66.80;100676.84;4991201;28;20039;-71
2021/08/24 07:39:01;;;;;;;10.85;6.40;;;;;;;16.41;66.80;100673.31;4987534;28;20038;-68
2021/08/24 07:41:27;;;;;;;15.45;6.15;;;;;;;16.41;66.78;100676.84;4988299;28;20050;-68
2021/08/24 07:43:52;;;;;;;13.55;7.15;;;;;;;16.42;65.40;100678.56;4987442;28;20092;-69
2021/08/24 07:46:17;;;;;;;8.32;5.65;;;;;;;16.58;65.70;100677.66;4981756;28;20042;-67
2021/08/24 07:48:43;;;;;;;13.52;5.93;;;;;;;16.73;65.85;100676.72;4985678;28;20065;-67
2021/08/24 07:51:08;;;;;;;10.32;6.07;;;;;;;16.73;65.98;100680.22;5005683;28;20044;-68
2021/08/24 07:53:33;;;;;;;13.18;5.53;;;;;;;16.85;65.72;100678.66;5006165;28;20045;-68
2021/08/24 07:56:01;;;;;;;11.65;6.90;;;;;;;16.89;65.31;100682.88;5005904;28;20532;-69
2021/08/24 07:58:26;;;;;;;11.38;5.78;;;;;;;16.83;64.80;100687.69;5005890;28;20486;-72
2021/08/24 08:00:51;;;;;;;13.07;5.82;;;;;;;16.85;64.82;100689.31;4998105;28;20126;-68
2021/08/24 08:03:20;;;;;;;9.25;5.10;;;;;;;17.07;64.55;100688.00;4999100;28;20119;-69
2021/08/24 08:05:45;;;;;;;10.43;6.30;;;;;;;16.97;64.16;100686.88;4995702;28;20033;-68
2021/08/24 08:08:11;;;;;;;10.57;5.38;;;;;;;17.16;64.29;100682.13;5004786;28;20374;-68
2021/08/24 08:10:37;;;;;;;13.00;6.43;;;;;;;17.33;63.64;100689.91;5004115;28;20120;-69
2021/08/24 08:13:03;;;;;;;9.82;5.45;;;;;;;17.36;62.82;100688.84;5004822;28;20037;-70
2021/08/24 08:15:31;;;;;;;18.48;6.20;;;;;;;17.39;62.49;100692.19;5005528;28;20041;-70
2021/08/24 08:17:58;;;;;;;11.73;6.05;;;;;;;17.46;62.52;100694.47;5005033;28;20037;-69
2021/08/24 08:20:24;;;;;;;11.90;5.82;;;;;;;17.42;62.51;100696.44;5005228;28;20030;-68
2021/08/24 08:22:49;;;;;;;11.63;5.53;;;;;;;17.49;61.17;100695.13;5003711;28;20042;-70
2021/08/24 08:25:15;;;;;;;23.83;6.65;;;;;;;17.44;61.37;100696.38;5003067;28;20061;-69
2021/08/24 08:27:41;;;;;;;14.02;5.80;;;;;;;17.44;61.87;100696.38;4983576;28;20117;-70
2021/08/24 08:30:07;;;;;;;10.00;5.47;;;;;;;17.58;61.59;100696.34;4985322;28;20037;-69
2021/08/24 08:32:32;;;;;;;15.27;6.30;;;;;;;17.70;61.79;100697.38;5000982;28;20045;-69
2021/08/24 08:34:58;;;;;;;13.63;5.25;;;;;;;17.93;60.98;100687.91;5005951;28;20034;-68
2021/08/24 08:38:12;;;;;;;11.30;6.07;;;;;;;17.93;60.11;100679.91;5006040;28;20390;-70
2021/08/24 08:40:46;;;;;;;8.98;5.35;;;;;;;17.92;60.81;100672.88;4992608;28;20597;-70
2021/08/24 08:43:18;;;;;;;10.95;5.72;;;;;;;18.20;59.54;100686.06;4996309;28;20038;-69
2021/08/24 08:45:49;;;;;;;9.48;5.38;;;;;;;18.30;59.02;100680.13;5004393;28;20096;-69
2021/08/24 08:48:33;;;;;;;12.48;5.13;;;;;;;18.42;57.94;100676.63;4995090;28;20040;-70
2021/08/24 08:51:06;;;;;;;8.88;5.50;;;;;;;18.48;58.29;100678.88;5004880;28;20716;-70
2021/08/24 08:53:46;;;;;;;10.02;5.10;;;;;;;18.53;56.45;100686.56;4998289;28;20056;-69
2021/08/24 08:56:16;;;;;;;5.80;4.00;;;;;;;18.60;56.90;100686.03;5001153;28;20160;-71
2021/08/24 08:59:04;;;;;;;8.15;4.68;;;;;;;18.65;55.51;100672.38;5000288;28;20033;-69
2021/08/24 09:01:37;;;;;;;7.18;4.40;;;;;;;18.73;55.77;100679.88;5006973;28;20126;-69
2021/08/24 09:04:08;;;;;;;7.60;4.68;;;;;;;18.76;54.46;100669.03;4993859;28;20445;-69
2021/08/24 09:06:38;;;;;;;8.88;4.30;;;;;;;18.73;54.31;100672.72;4986293;28;20038;-71
2021/08/24 09:09:06;;;;;;;9.13;4.25;;;;;;;18.78;54.38;100665.28;5018682;28;20042;-70
2021/08/24 09:11:43;;;;;;;6.38;3.88;;;;;;;18.94;53.67;100669.53;4999749;28;20202;-71
2021/08/24 09:14:38;;;;;;;6.57;4.40;;;;;;;19.17;53.09;100670.59;5001513;28;20034;-69
2021/08/24 09:17:13;;;;;;;7.00;4.20;;;;;;;19.22;53.22;100660.41;5001136;28;20037;-70
2021/08/24 09:19:38;;;;;;;5.68;4.20;;;;;;;19.36;53.57;100654.94;5001381;28;20352;-69
2021/08/24 09:22:05;;;;;;;13.93;4.80;;;;;;;19.51;53.27;100656.50;4991030;28;20120;-68
2021/08/24 09:24:31;;;;;;;7.53;4.25;;;;;;;19.75;52.63;100660.22;4991527;28;20037;-68
2021/08/24 09:27:10;;;;;;;7.78;5.20;;;;;;;20.03;50.36;100656.31;4990618;28;20035;-69
2021/08/24 09:29:44;;;;;;;9.73;5.75;;;;;;;20.82;48.32;100656.59;4996666;28;20085;-70
2021/08/24 09:32:10;;;;;;;12.43;4.10;;;;;;;21.64;46.01;100652.69;4997968;28;20034;-69
2021/08/24 09:34:40;;;;;;;18.45;6.85;;;;;;;22.37;44.56;100650.22;4992341;28;20044;-70
2021/08/24 09:37:12;;;;;;;6.18;4.35;;;;;;;23.12;43.38;100648.28;4990391;28;20082;-70
2021/08/24 09:39:52;;;;;;;7.57;4.10;;;;;;;24.10;39.99;100652.91;5004161;28;20426;-69
2021/08/24 09:42:35;;;;;;;8.65;5.13;;;;;;;24.36;38.68;100649.63;4997022;28;20034;-69
2021/08/24 09:45:18;;;;;;;8.15;5.25;;;;;;;23.98;37.50;100652.19;4974589;28;20070;-70
2021/08/24 09:48:03;;;;;;;7.78;4.85;;;;;;;24.06;38.55;100653.31;4958621;28;20039;-70
2021/08/24 09:50:33;;;;;;;10.55;5.00;;;;;;;24.82;37.30;100650.69;4984640;28;20042;-71
2021/08/24 09:53:03;;;;;;;9.68;5.93;;;;;;;25.18;37.00;100649.03;4980579;28;20129;-67
2021/08/24 09:55:31;;;;;;;7.03;4.88;;;;;;;25.35;36.00;100655.50;4954944;28;20140;-69
2021/08/24 09:58:04;;;;;;;9.50;5.10;;;;;;;25.17;35.28;100649.19;5002857;28;20041;-69
2021/08/24 10:00:35;;;;;;;9.30;5.38;;;;;;;25.19;35.93;100655.28;4979215;28;20038;-68
2021/08/24 10:03:17;;;;;;;16.80;5.68;;;;;;;25.68;35.08;100647.75;4991615;28;20089;-69
2021/08/24 10:05:43;;;;;;;8.00;4.85;;;;;;;26.05;33.88;100644.94;4994414;28;20057;-69
2021/08/24 10:08:27;;;;;;;7.25;4.45;;;;;;;26.39;34.22;100627.16;4994033;28;20558;-68
2021/08/24 10:11:19;;;;;;;7.18;4.35;;;;;;;26.79;33.32;100633.88;4993600;28;20033;-69
2021/08/24 10:13:46;;;;;;;12.80;5.07;;;;;;;26.80;33.35;100627.44;4978232;28;20074;-69
2021/08/24 10:16:20;;;;;;;7.03;4.95;;;;;;;26.56;33.13;100618.19;4974248;28;20043;-68
2021/08/24 10:18:48;;;;;;;8.85;4.85;;;;;;;25.82;33.86;100622.94;4973849;28;20041;-69
2021/08/24 10:21:29;;;;;;;9.20;6.40;;;;;;;25.18;33.94;100626.56;4973409;28;20181;-68
2021/08/24 10:23:59;;;;;;;7.18;3.00;;;;;;;24.29;34.42;100621.53;4974219;28;20035;-69
2021/08/24 10:26:33;;;;;;;8.52;4.50;;;;;;;24.95;34.07;100618.00;4974102;28;20121;-69
2021/08/24 10:29:01;;;;;;;11.95;5.05;;;;;;;25.57;33.56;100631.75;4990491;28;20026;-69
2021/08/24 10:31:36;;;;;;;11.50;4.35;;;;;;;25.60;32.48;100623.38;4977938;28;20031;-69
2021/08/24 10:34:01;;;;;;;;;;;;;;;24.90;34.10;100629.22;4993322;28;20124;-68
2021/08/24 10:36:39;;;;;;;5.70;3.87;;;;;;;23.84;36.06;100624.81;4992528;28;20425;-69
2021/08/24 10:39:29;;;;;;;6.07;3.47;;;;;;;24.76;34.75;100630.56;4993384;28;20282;-70
2021/08/24 10:42:00;;;;;;;7.53;3.95;;;;;;;25.17;33.41;100623.03;4994023;28;20034;-69
2021/08/24 10:44:28;;;;;;;5.15;3.72;;;;;;;25.27;32.72;100618.44;4994285;28;20038;-70
2021/08/24 10:46:59;;;;;;;7.20;4.05;;;;;;;25.43;32.40;100620.47;4994603;28;20379;-69
2021/08/24 10:49:25;;;;;;;7.72;3.63;;;;;;;25.41;32.53;100613.53;4991908;28;20058;-69
2021/08/24 10:52:08;;;;;;;9.45;4.45;;;;;;;24.97;32.17;100613.31;4993231;28;20136;-69
2021/08/24 10:54:58;;;;;;;6.78;3.53;;;;;;;24.12;32.04;100621.28;4993483;28;20088;-69
2021/08/24 10:57:48;;;;;;;8.27;4.20;;;;;;;23.47;34.27;100620.06;4976029;28;20383;-69
2021/08/24 11:00:22;;;;;;;7.32;4.53;;;;;;;23.09;34.66;100616.28;4993019;28;20035;-69
2021/08/24 11:03:09;;;;;;;6.75;3.83;;;;;;;22.49;34.79;100619.59;4993441;28;20084;-69
2021/08/24 11:05:49;;;;;;;6.30;3.88;;;;;;;22.39;35.55;100620.53;4992470;28;20088;-68
2021/08/24 11:08:26;;;;;;;10.35;4.75;;;;;;;22.08;35.16;100604.31;4990395;28;20113;-69
2021/08/24 11:11:18;;;;;;;11.82;4.82;;;;;;;21.84;35.66;100612.59;4993334;28;20124;-68
2021/08/24 11:14:03;;;;;;;8.20;4.97;;;;;;;21.79;36.06;100618.34;4972852;28;20094;-70
2021/08/24 11:16:50;;;;;;;18.52;4.97;;;;;;;21.81;36.38;100624.44;4991871;28;20034;-69
2021/08/24 11:19:36;;;;;;;8.65;4.60;;;;;;;21.93;36.12;100627.94;4991470;28;20053;-69
2021/08/24 11:22:23;;;;;;;8.15;5.35;;;;;;;21.94;35.86;100629.63;4992193;28;20038;-68
2021/08/24 11:25:16;;;;;;;11.40;3.67;;;;;;;21.81;35.77;100623.59;4994842;28;20035;-69
2021/08/24 11:27:46;;;;;;;9.68;4.75;;;;;;;21.58;35.76;100623.66;4992089;28;20526;-69
2021/08/24 11:30:22;;;;;;;7.75;4.00;;;;;;;21.79;35.80;100626.41;4990683;28;20037;-68
2021/08/24 11:32:55;;;;;;;7.88;4.32;;;;;;;21.86;34.43;100626.75;4991968;28;20045;-69